Time;durP1;ratioP1;P1;durP2;ratioP2;P2;SDS_P1;SDS_P2;PMS_P1;PMS_P2;Temp;Humidity;BMP_temperature;BMP_pressure;BME280_temperature;BME280_humidity;BME280_pressure;Samples;Min_cycle;Max_cycle;Signal;HPM_P1;HPM_P2
2023/10/28 00:01:36;;;;;;;3.65;1.60;;;;;;;8.96;100.00;96627.50;6110662;19;20028;-75
2023/10/28 00:03:36;;;;;;;4.20;1.75;;;;;;;8.99;100.00;96632.16;6110241;19;20456;-75
2023/10/28 00:05:37;;;;;;;3.13;1.60;;;;;;;8.93;100.00;96634.59;6111317;19;20014;-75
2023/10/28 00:07:37;;;;;;;4.03;1.80;;;;;;;8.90;100.00;96640.94;6110539;19;20026;-75
2023/10/28 00:09:40;;;;;;;2.72;1.20;;;;;;;8.88;100.00;96653.59;6110459;19;20003;-75
2023/10/28 00:11:41;;;;;;;4.50;1.92;;;;;;;8.87;100.00;96639.00;6110259;19;20647;-75
2023/10/28 00:13:41;;;;;;;3.75;1.60;;;;;;;8.89;100.00;96655.16;6110243;19;20003;-75
2023/10/28 00:15:42;;;;;;;3.72;1.80;;;;;;;8.87;100.00;96638.22;6110503;19;20021;-75
2023/10/28 00:17:42;;;;;;;3.95;1.42;;;;;;;8.92;100.00;96646.03;6111296;19;20026;-75
2023/10/28 00:19:43;;;;;;;3.60;1.75;;;;;;;8.94;100.00;96649.97;6111000;19;20011;-75
2023/10/28 00:21:43;;;;;;;3.20;1.60;;;;;;;8.99;100.00;96641.22;6110473;19;20017;-76
2023/10/28 00:23:43;;;;;;;2.83;1.45;;;;;;;8.98;100.00;96649.91;6109500;19;20626;-75
2023/10/28 00:25:45;;;;;;;3.10;1.67;;;;;;;9.00;100.00;96644.75;6110300;19;20007;-75
2023/10/28 00:27:45;;;;;;;7.03;1.58;;;;;;;9.07;100.00;96644.69;6108646;19;20010;-75
2023/10/28 00:29:51;;;;;;;6.82;2.15;;;;;;;9.12;100.00;96647.00;6100525;19;20496;-75
2023/10/28 00:31:52;;;;;;;7.32;1.70;;;;;;;9.14;100.00;96652.09;6109610;19;20029;-75
2023/10/28 00:33:52;;;;;;;2.58;1.55;;;;;;;9.18;100.00;96647.31;6108396;19;20002;-75
2023/10/28 00:35:53;;;;;;;4.47;1.70;;;;;;;9.17;100.00;96645.75;6109997;19;20254;-75
2023/10/28 00:37:54;;;;;;;2.53;2.20;;;;;;;9.17;100.00;96652.03;6109871;19;20074;-75
2023/10/28 00:39:55;;;;;;;4.88;1.75;;;;;;;9.13;100.00;96639.50;6110464;19;20117;-75
2023/10/28 00:41:57;;;;;;;4.28;1.95;;;;;;;9.15;100.00;96654.44;6109339;19;20493;-75
2023/10/28 00:43:58;;;;;;;6.33;2.00;;;;;;;9.19;100.00;96652.44;6107482;19;20475;-75
2023/10/28 00:45:59;;;;;;;3.65;1.50;;;;;;;9.19;100.00;96644.16;6110802;19;20338;-75
2023/10/28 00:48:00;;;;;;;4.88;1.85;;;;;;;9.17;100.00;96651.25;6109136;19;20427;-76
2023/10/28 00:50:02;;;;;;;4.72;2.10;;;;;;;9.17;100.00;96652.03;6110262;19;20017;-75
2023/10/28 00:52:03;;;;;;;3.05;1.63;;;;;;;9.22;100.00;96650.81;6108350;19;20015;-75
2023/10/28 00:54:03;;;;;;;2.45;1.60;;;;;;;9.20;100.00;96650.47;6107172;19;20002;-75
2023/10/28 00:56:04;;;;;;;3.20;1.67;;;;;;;9.16;100.00;96650.47;6108302;19;20002;-75
2023/10/28 00:58:06;;;;;;;3.40;1.50;;;;;;;9.11;100.00;96645.44;6109196;19;20321;-75
2023/10/28 01:00:07;;;;;;;6.55;2.42;;;;;;;9.12;100.00;96651.72;6109654;19;20014;-75
2023/10/28 01:02:08;;;;;;;3.67;2.08;;;;;;;9.16;100.00;96657.97;6108144;19;20006;-75
2023/10/28 01:04:09;;;;;;;6.18;2.28;;;;;;;9.14;100.00;96652.88;6108916;19;20324;-75
2023/10/28 01:06:09;;;;;;;3.22;1.63;;;;;;;9.10;100.00;96651.34;6109140;19;20308;-75
2023/10/28 01:08:10;;;;;;;6.10;2.45;;;;;;;9.10;100.00;96652.16;6108676;19;20062;-75
2023/10/28 01:10:10;;;;;;;6.80;2.10;;;;;;;9.11;100.00;96652.94;6108806;19;20453;-75
2023/10/28 01:12:13;;;;;;;6.63;1.70;;;;;;;9.13;100.00;96643.03;6108086;19;20019;-75
2023/10/28 01:14:14;;;;;;;6.30;1.73;;;;;;;9.12;100.00;96654.50;6108667;19;20019;-75
2023/10/28 01:16:14;;;;;;;3.80;1.60;;;;;;;9.09;100.00;96644.25;6107285;19;20006;-75
2023/10/28 01:18:15;;;;;;;3.08;1.85;;;;;;;9.06;100.00;96648.63;6108666;19;20860;-75
2023/10/28 01:20:16;;;;;;;5.93;2.42;;;;;;;9.03;100.00;96646.72;6108945;19;20002;-75
2023/10/28 01:22:16;;;;;;;4.15;1.83;;;;;;;9.04;100.00;96639.22;6109156;19;20029;-75
2023/10/28 01:24:17;;;;;;;5.72;2.40;;;;;;;9.01;100.00;96643.56;6107616;19;20002;-75
2023/10/28 01:26:18;;;;;;;2.72;1.83;;;;;;;8.98;100.00;96639.66;6109603;19;20013;-75
2023/10/28 01:28:18;;;;;;;3.95;1.70;;;;;;;8.94;100.00;96636.19;6107437;19;20030;-75
2023/10/28 01:30:19;;;;;;;3.80;1.75;;;;;;;8.95;100.00;96636.97;6101811;19;20014;-75
2023/10/28 01:32:19;;;;;;;2.35;1.63;;;;;;;8.89;100.00;96641.34;6101702;19;20379;-75
2023/10/28 01:34:22;;;;;;;3.22;1.60;;;;;;;8.85;100.00;96633.09;6101217;19;20010;-75
2023/10/28 01:36:23;;;;;;;4.63;1.98;;;;;;;8.82;100.00;96633.94;6101241;19;20010;-75
2023/10/28 01:38:23;;;;;;;6.20;2.03;;;;;;;8.82;100.00;96636.69;6101794;19;20314;-75
2023/10/28 01:40:24;;;;;;;8.07;2.10;;;;;;;8.80;100.00;96633.56;6102045;19;20035;-75
2023/10/28 01:42:25;;;;;;;3.45;1.50;;;;;;;8.79;100.00;96628.47;6100677;19;20399;-76
2023/10/28 01:44:25;;;;;;;6.55;1.98;;;;;;;8.79;100.00;96637.53;6099792;19;20014;-75
2023/10/28 01:46:25;;;;;;;2.97;1.48;;;;;;;8.78;100.00;96646.22;6101876;19;20246;-75
2023/10/28 01:48:26;;;;;;;1.67;1.33;;;;;;;8.75;100.00;96639.53;6102047;19;20022;-75
2023/10/28 01:50:26;;;;;;;3.55;1.60;;;;;;;8.76;100.00;96643.84;6101096;19;20006;-75
2023/10/28 01:52:28;;;;;;;2.60;1.65;;;;;;;8.74;100.00;96632.44;6101554;19;20019;-75
2023/10/28 01:54:29;;;;;;;2.95;1.55;;;;;;;8.71;100.00;96645.09;6099980;19;20017;-75
2023/10/28 01:56:29;;;;;;;4.50;2.40;;;;;;;8.74;100.00;96643.47;6101282;19;20010;-75
2023/10/28 01:58:32;;;;;;;4.35;1.80;;;;;;;8.73;100.00;96639.94;6099001;19;20382;-75
2023/10/28 02:00:33;;;;;;;4.10;1.70;;;;;;;8.73;100.00;96644.69;6101505;19;20336;-75
2023/10/28 02:02:34;;;;;;;4.63;1.90;;;;;;;8.76;100.00;96641.09;6100473;19;20286;-75
2023/10/28 02:04:34;;;;;;;3.40;1.83;;;;;;;8.75;100.00;96634.00;6100304;19;20557;-75
2023/10/28 02:06:35;;;;;;;3.05;1.60;;;;;;;8.79;100.00;96645.81;6100779;19;20014;-75
2023/10/28 02:08:35;;;;;;;7.70;1.77;;;;;;;8.78;100.00;96635.19;6101198;19;20010;-75
2023/10/28 02:10:36;;;;;;;5.28;2.00;;;;;;;8.79;100.00;96634.78;6098119;19;20022;-75
2023/10/28 02:12:36;;;;;;;2.63;1.60;;;;;;;8.85;100.00;96638.63;6096424;19;20021;-75
2023/10/28 02:14:37;;;;;;;2.58;1.73;;;;;;;8.89;100.00;96641.34;6100095;19;20007;-75
2023/10/28 02:16:38;;;;;;;3.95;2.00;;;;;;;8.89;100.00;96636.63;6100581;19;20082;-75
2023/10/28 02:18:38;;;;;;;3.85;2.10;;;;;;;8.89;100.00;96635.84;6100666;19;20389;-75
2023/10/28 02:20:39;;;;;;;4.00;1.65;;;;;;;8.90;100.00;96627.16;6099112;19;20006;-75
2023/10/28 02:22:40;;;;;;;4.82;1.90;;;;;;;8.91;100.00;96625.94;6100197;19;20015;-75
2023/10/28 02:24:41;;;;;;;1.95;1.40;;;;;;;8.92;100.00;96633.03;6099108;19;20007;-75
2023/10/28 02:26:41;;;;;;;3.20;1.60;;;;;;;8.89;100.00;96633.88;6099581;19;20082;-76
2023/10/28 02:28:41;;;;;;;3.90;1.60;;;;;;;8.87;100.00;96624.44;6099825;19;20033;-75
2023/10/28 02:30:42;;;;;;;2.28;1.40;;;;;;;8.86;100.00;96620.13;6106328;19;20005;-75
2023/10/28 02:32:42;;;;;;;3.30;1.70;;;;;;;8.85;100.00;96632.31;6106681;19;20007;-74
2023/10/28 02:34:43;;;;;;;2.75;1.67;;;;;;;8.83;100.00;96631.97;6104947;19;20058;-75
2023/10/28 02:36:43;;;;;;;4.25;1.65;;;;;;;8.81;100.00;96632.38;6106662;19;20434;-74
2023/10/28 02:38:43;;;;;;;5.78;1.63;;;;;;;8.79;100.00;96629.25;6106908;19;20007;-75
2023/10/28 02:40:47;;;;;;;3.92;2.03;;;;;;;8.81;100.00;96628.84;6105955;19;20003;-74
2023/10/28 02:42:47;;;;;;;1.70;1.30;;;;;;;8.81;100.00;96635.13;6106480;19;20006;-74
2023/10/28 02:44:47;;;;;;;4.15;1.42;;;;;;;8.82;100.00;96633.94;6105432;19;20332;-75
2023/10/28 02:46:48;;;;;;;1.83;1.40;;;;;;;8.83;100.00;96645.75;6105887;19;20538;-75
2023/10/28 02:48:48;;;;;;;3.60;2.47;;;;;;;8.80;100.00;96633.56;6106081;19;19999;-74
2023/10/28 02:50:48;;;;;;;4.05;1.75;;;;;;;8.82;100.00;96644.19;6107796;19;20013;-75
2023/10/28 02:52:50;;;;;;;3.83;1.42;;;;;;;8.78;100.00;96630.44;6105608;19;20030;-74
2023/10/28 02:54:50;;;;;;;3.22;1.40;;;;;;;8.78;100.00;96635.97;6104727;19;20007;-75
2023/10/28 02:56:50;;;;;;;2.00;1.60;;;;;;;8.78;100.00;96643.47;6107028;19;20006;-75
2023/10/28 02:58:51;;;;;;;5.20;1.50;;;;;;;8.77;100.00;96641.88;6105381;19;20116;-74
2023/10/28 03:00:51;;;;;;;3.60;1.33;;;;;;;8.76;100.00;96634.78;6106294;19;20006;-75
2023/10/28 03:02:52;;;;;;;2.97;1.40;;;;;;;8.76;100.00;96643.06;6106021;19;20487;-74
2023/10/28 03:04:53;;;;;;;3.15;1.40;;;;;;;8.74;100.00;96640.72;6105428;19;19999;-75
2023/10/28 03:06:53;;;;;;;1.60;1.30;;;;;;;8.75;100.00;96631.25;6105859;19;20025;-75
2023/10/28 03:08:54;;;;;;;1.77;1.20;;;;;;;8.79;100.00;96637.53;6106797;19;20099;-75
2023/10/28 03:10:54;;;;;;;4.32;1.30;;;;;;;8.83;100.00;96629.97;6106675;19;20455;-75
2023/10/28 03:12:55;;;;;;;1.63;1.10;;;;;;;8.84;100.00;96639.81;6106626;19;20006;-74
2023/10/28 03:14:55;;;;;;;1.63;1.15;;;;;;;8.80;100.00;96641.84;6104686;19;20373;-74
2023/10/28 03:16:56;;;;;;;1.20;1.10;;;;;;;8.82;100.00;96644.19;6106537;19;20013;-74
2023/10/28 03:18:56;;;;;;;2.70;0.98;;;;;;;8.87;100.00;96649.25;6106894;19;20013;-74
2023/10/28 03:20:57;;;;;;;1.38;1.27;;;;;;;8.86;100.00;96655.97;6105589;19;20037;-75
2023/10/28 03:22:57;;;;;;;1.73;1.05;;;;;;;8.85;100.00;96643.34;6106652;19;20417;-74
2023/10/28 03:24:58;;;;;;;1.70;1.15;;;;;;;8.84;100.00;96648.09;6104966;19;19998;-75
2023/10/28 03:26:58;;;;;;;1.55;1.00;;;;;;;8.82;100.00;96660.72;6105063;19;20440;-74
2023/10/28 03:28:59;;;;;;;3.13;0.88;;;;;;;8.82;100.00;96658.75;6106792;19;20456;-75
2023/10/28 03:31:06;;;;;;;1.40;1.30;;;;;;;8.84;100.00;96650.84;6107219;19;20007;-75
2023/10/28 03:33:07;;;;;;;0.80;0.80;;;;;;;8.86;100.00;96653.22;6113860;19;20010;-74
2023/10/28 03:35:08;;;;;;;1.15;1.00;;;;;;;8.87;100.00;96641.00;6111040;19;20017;-75
2023/10/28 03:37:08;;;;;;;1.33;0.88;;;;;;;8.92;100.00;96646.03;6112072;19;20003;-75
2023/10/28 03:39:09;;;;;;;2.08;1.15;;;;;;;8.98;100.00;96649.91;6113626;19;20431;-74
2023/10/28 03:41:11;;;;;;;1.27;1.17;;;;;;;8.98;100.00;96656.22;6111773;19;20510;-74
2023/10/28 03:43:11;;;;;;;2.42;1.05;;;;;;;8.97;100.00;96665.69;6112541;19;19998;-75
2023/10/28 03:45:12;;;;;;;1.00;0.90;;;;;;;8.96;100.00;96664.13;6110674;19;20477;-75
2023/10/28 03:47:12;;;;;;;1.45;1.00;;;;;;;8.94;100.00;96662.97;6113050;19;20003;-75
2023/10/28 03:49:12;;;;;;;1.55;1.10;;;;;;;8.95;100.00;96656.25;6111623;19;20011;-75
2023/10/28 03:51:13;;;;;;;1.10;1.00;;;;;;;8.96;100.00;96663.34;6110564;19;20007;-75
2023/10/28 03:53:13;;;;;;;1.48;1.05;;;;;;;8.95;100.00;96664.53;6112043;19;20006;-75
2023/10/28 03:55:13;;;;;;;0.88;0.75;;;;;;;8.96;100.00;96668.84;6109858;19;20007;-74
2023/10/28 03:57:14;;;;;;;1.92;1.00;;;;;;;8.98;100.00;96658.19;6111550;19;20006;-74
2023/10/28 03:59:15;;;;;;;2.33;0.90;;;;;;;8.96;100.00;96671.63;6110865;19;20509;-75
2023/10/28 04:01:16;;;;;;;1.07;0.93;;;;;;;9.00;100.00;96670.38;6111107;19;20014;-74
2023/10/28 04:03:17;;;;;;;1.42;0.98;;;;;;;8.99;100.00;96676.31;6111431;19;22641;-75
2023/10/28 04:05:18;;;;;;;1.75;0.90;;;;;;;9.03;100.00;96682.56;6110005;19;20525;-75
2023/10/28 04:07:18;;;;;;;0.80;0.80;;;;;;;9.03;100.00;96679.81;6112649;19;20046;-74
2023/10/28 04:09:19;;;;;;;1.17;0.80;;;;;;;9.03;100.00;96685.34;6111280;19;20010;-75
2023/10/28 04:11:19;;;;;;;2.05;1.02;;;;;;;9.03;100.00;96687.31;6110118;19;20377;-74
2023/10/28 04:13:20;;;;;;;6.47;1.67;;;;;;;9.06;100.00;96689.25;6112667;19;20552;-75
2023/10/28 04:15:20;;;;;;;3.03;1.00;;;;;;;9.08;100.00;96690.38;6110334;19;20629;-75
2023/10/28 04:17:20;;;;;;;0.90;0.90;;;;;;;9.09;100.00;96689.19;6110857;19;20042;-75
2023/10/28 04:19:21;;;;;;;0.90;0.80;;;;;;;9.11;100.00;96694.31;6111017;19;20344;-74
2023/10/28 04:21:22;;;;;;;1.42;0.70;;;;;;;9.09;100.00;96688.41;6112092;19;20026;-74
2023/10/28 04:23:22;;;;;;;0.65;0.65;;;;;;;9.08;100.00;96686.84;6111233;19;20015;-75
2023/10/28 04:25:22;;;;;;;1.48;0.90;;;;;;;9.07;100.00;96686.06;6110032;19;20466;-75
2023/10/28 04:27:23;;;;;;;1.02;0.93;;;;;;;9.05;100.00;96687.69;6111830;19;20013;-75
2023/10/28 04:29:23;;;;;;;0.68;0.65;;;;;;;9.03;100.00;96688.09;6110847;19;20006;-75
2023/10/28 04:31:24;;;;;;;1.30;0.88;;;;;;;8.99;100.00;96682.59;6111516;19;20026;-75
2023/10/28 04:33:25;;;;;;;0.70;0.70;;;;;;;8.98;100.00;96694.06;6111195;19;20003;-75
2023/10/28 04:35:25;;;;;;;0.68;0.68;;;;;;;8.96;100.00;96688.94;6109190;19;20005;-75
2023/10/28 04:37:26;;;;;;;0.82;0.77;;;;;;;8.96;100.00;96690.94;6109403;19;20002;-75
2023/10/28 04:39:26;;;;;;;0.93;0.70;;;;;;;8.92;100.00;96684.66;6108636;19;20411;-75
2023/10/28 04:41:26;;;;;;;1.77;0.70;;;;;;;8.91;100.00;96685.84;6109542;19;20332;-74
2023/10/28 04:43:26;;;;;;;1.52;0.80;;;;;;;8.90;100.00;96689.81;6109187;19;20011;-75
2023/10/28 04:45:27;;;;;;;1.25;0.70;;;;;;;8.88;100.00;96686.69;6108494;19;20007;-75
2023/10/28 04:47:27;;;;;;;2.30;0.60;;;;;;;8.89;100.00;96688.25;6110386;19;20102;-74
2023/10/28 04:49:30;;;;;;;1.30;0.70;;;;;;;8.86;100.00;96691.81;6110825;19;20018;-75
2023/10/28 04:51:31;;;;;;;0.65;0.65;;;;;;;8.83;100.00;96687.13;6109603;19;20006;-75
2023/10/28 04:53:31;;;;;;;0.70;0.70;;;;;;;8.81;100.00;96690.28;6109684;19;20029;-75
2023/10/28 04:55:32;;;;;;;0.60;0.60;;;;;;;8.81;100.00;96692.25;6110024;19;20010;-74
2023/10/28 04:57:32;;;;;;;0.60;0.60;;;;;;;8.79;100.00;96695.44;6109485;19;20172;-74
2023/10/28 04:59:32;;;;;;;0.60;0.60;;;;;;;8.78;100.00;96690.34;6109486;19;20467;-75
2023/10/28 05:01:33;;;;;;;0.70;0.70;;;;;;;8.76;100.00;96693.47;6108622;19;20006;-74
2023/10/28 05:03:34;;;;;;;0.60;0.60;;;;;;;8.76;100.00;96684.41;6107574;19;20145;-74
2023/10/28 05:05:35;;;;;;;0.63;0.60;;;;;;;8.74;100.00;96693.09;6108579;19;20340;-74
2023/10/28 05:07:36;;;;;;;0.75;0.60;;;;;;;8.75;100.00;96689.16;6110157;19;20102;-74
2023/10/28 05:09:36;;;;;;;0.63;0.60;;;;;;;8.74;100.00;96693.09;6108680;19;20007;-74
2023/10/28 05:11:36;;;;;;;0.65;0.65;;;;;;;8.74;100.00;96693.09;6109100;19;20010;-75
2023/10/28 05:13:37;;;;;;;0.75;0.70;;;;;;;8.75;100.00;96691.13;6107566;19;20006;-74
2023/10/28 05:15:38;;;;;;;1.30;0.70;;;;;;;8.77;100.00;96699.78;6108586;19;20070;-74
2023/10/28 05:17:39;;;;;;;1.50;0.70;;;;;;;8.77;100.00;96702.53;6107549;19;20042;-75
2023/10/28 05:19:39;;;;;;;0.80;0.70;;;;;;;8.77;100.00;96702.53;6107853;19;20002;-75
2023/10/28 05:21:40;;;;;;;0.80;0.70;;;;;;;8.77;100.00;96703.34;6107623;19;20471;-75
2023/10/28 05:23:40;;;;;;;1.00;0.73;;;;;;;8.80;100.00;96701.72;6106876;19;20034;-75
2023/10/28 05:25:41;;;;;;;0.68;0.68;;;;;;;8.78;100.00;96702.16;6107168;19;20114;-74
2023/10/28 05:27:41;;;;;;;1.33;0.70;;;;;;;8.81;100.00;96708.81;6107707;19;20353;-74
2023/10/28 05:29:41;;;;;;;0.68;0.68;;;;;;;8.79;100.00;96700.16;6099193;19;20466;-74
2023/10/28 05:31:42;;;;;;;0.70;0.70;;;;;;;8.79;100.00;96709.22;6106551;19;20373;-75
2023/10/28 05:33:42;;;;;;;0.85;0.70;;;;;;;8.81;100.00;96706.84;6106329;19;20089;-74
2023/10/28 05:35:42;;;;;;;1.13;0.60;;;;;;;8.79;100.00;96714.75;6107786;19;20125;-75
2023/10/28 05:37:43;;;;;;;1.48;0.70;;;;;;;8.81;100.00;96714.31;6105171;19;20038;-75
2023/10/28 05:39:43;;;;;;;0.77;0.73;;;;;;;8.80;100.00;96719.06;6104620;19;20327;-75
2023/10/28 05:41:44;;;;;;;1.92;0.70;;;;;;;8.79;100.00;96709.22;6107902;19;20494;-74
2023/10/28 05:43:44;;;;;;;0.82;0.70;;;;;;;8.78;100.00;96718.69;6105807;19;20023;-75
2023/10/28 05:45:44;;;;;;;0.75;0.75;;;;;;;8.81;100.00;96725.34;6107366;19;20010;-75
2023/10/28 05:47:46;;;;;;;1.42;0.70;;;;;;;8.78;100.00;96726.97;6106936;19;20019;-74
2023/10/28 05:49:46;;;;;;;1.00;0.85;;;;;;;8.79;100.00;96723.00;6107212;19;20009;-75
2023/10/28 05:51:47;;;;;;;1.40;0.70;;;;;;;8.81;100.00;96731.66;6106603;19;20465;-74
2023/10/28 05:53:47;;;;;;;1.00;0.90;;;;;;;8.83;100.00;96734.00;6104676;19;20507;-75
2023/10/28 05:55:48;;;;;;;2.63;0.80;;;;;;;8.84;100.00;96739.09;6106602;19;19998;-74
2023/10/28 05:57:48;;;;;;;1.00;0.90;;;;;;;8.84;100.00;96744.63;6106185;19;20006;-74
2023/10/28 05:59:49;;;;;;;0.85;0.70;;;;;;;8.84;100.00;96747.38;6106789;19;20027;-75
2023/10/28 06:01:49;;;;;;;1.85;0.80;;;;;;;8.85;100.00;96746.16;6105737;19;20006;-75
2023/10/28 06:03:49;;;;;;;1.05;0.85;;;;;;;8.85;100.00;96753.66;6105036;19;20010;-75
2023/10/28 06:05:50;;;;;;;0.95;0.85;;;;;;;8.87;100.00;96754.06;6106165;19;20095;-74
2023/10/28 06:07:50;;;;;;;1.33;1.00;;;;;;;8.89;100.00;96757.19;6105507;19;20396;-75
2023/10/28 06:09:51;;;;;;;0.70;0.70;;;;;;;8.92;100.00;96764.63;6106751;19;20040;-74
2023/10/28 06:11:51;;;;;;;0.93;0.75;;;;;;;8.90;100.00;96765.03;6106476;19;20111;-74
2023/10/28 06:13:52;;;;;;;0.80;0.80;;;;;;;8.91;100.00;96769.38;6104865;19;20483;-75
2023/10/28 06:15:52;;;;;;;1.55;0.80;;;;;;;8.97;100.00;96767.75;6106100;19;20006;-75
2023/10/28 06:17:52;;;;;;;0.50;0.50;;;;;;;8.99;100.00;96776.38;6106191;19;20030;-74
2023/10/28 06:19:53;;;;;;;0.60;0.60;;;;;;;8.99;100.00;96781.13;6106441;19;20010;-75
2023/10/28 06:21:53;;;;;;;0.60;0.60;;;;;;;9.00;100.00;96780.72;6105727;19;20010;-74
2023/10/28 06:23:53;;;;;;;0.57;0.57;;;;;;;9.01;100.00;96779.50;6101789;19;20067;-74
2023/10/28 06:25:54;;;;;;;0.98;0.77;;;;;;;9.06;100.00;96777.53;6105935;19;20072;-75
2023/10/28 06:27:55;;;;;;;0.60;0.60;;;;;;;9.10;100.00;96787.34;6105883;19;20078;-74
2023/10/28 06:29:55;;;;;;;0.60;0.60;;;;;;;9.10;100.00;96792.03;6096994;19;20052;-75
2023/10/28 06:31:58;;;;;;;1.13;0.63;;;;;;;9.10;100.00;96790.09;6098448;19;20006;-74
2023/10/28 06:34:00;;;;;;;1.55;1.20;;;;;;;9.11;100.00;96783.38;6098741;19;20111;-75
2023/10/28 06:36:00;;;;;;;;;;;;;;;9.13;100.00;96786.50;6098260;19;20326;-75
2023/10/28 06:38:01;;;;;;;0.82;0.82;;;;;;;9.15;100.00;96780.56;6097939;19;19918;-75
2023/10/28 06:40:01;;;;;;;2.20;0.95;;;;;;;9.13;100.00;96785.72;6098688;19;20007;-74
2023/10/28 06:42:04;;;;;;;0.60;0.60;;;;;;;9.10;100.00;96783.75;6098207;19;20014;-75
2023/10/28 06:44:08;;;;;;;0.70;0.70;;;;;;;9.06;100.00;96794.06;6097469;19;20008;-75
2023/10/28 06:46:09;;;;;;;1.13;0.90;;;;;;;9.01;100.00;96790.53;6095731;19;20013;-74
2023/10/28 06:48:10;;;;;;;0.70;0.70;;;;;;;9.04;100.00;96793.69;6097341;19;20375;-74
2023/10/28 06:50:10;;;;;;;0.68;0.68;;;;;;;9.05;100.00;96800.78;6099224;19;20014;-75
2023/10/28 06:52:13;;;;;;;1.05;0.70;;;;;;;9.04;100.00;96810.25;6100106;19;20462;-75
2023/10/28 06:54:13;;;;;;;1.00;0.75;;;;;;;8.99;100.00;96803.19;6098948;19;20437;-75
2023/10/28 06:56:15;;;;;;;0.95;0.57;;;;;;;8.98;100.00;96816.19;6100328;19;20103;-74
2023/10/28 06:58:15;;;;;;;0.70;0.70;;;;;;;8.95;100.00;96814.25;6099629;19;20357;-74
2023/10/28 07:00:16;;;;;;;0.70;0.70;;;;;;;8.94;100.00;96823.75;6099862;19;20006;-75
2023/10/28 07:02:16;;;;;;;0.70;0.70;;;;;;;8.96;100.00;96824.09;6096057;19;20029;-75
2023/10/28 07:04:17;;;;;;;1.13;0.57;;;;;;;8.95;100.00;96832.78;6097912;19;20032;-75
2023/10/28 07:06:17;;;;;;;1.40;0.70;;;;;;;8.95;100.00;96836.34;6103912;19;20007;-75
2023/10/28 07:08:19;;;;;;;2.05;0.95;;;;;;;9.01;100.00;96842.97;6105136;19;20006;-74
2023/10/28 07:10:20;;;;;;;0.60;0.60;;;;;;;9.07;100.00;96843.31;6105827;19;20002;-74
2023/10/28 07:12:21;;;;;;;2.58;0.70;;;;;;;9.11;100.00;96843.28;6104534;19;20018;-75
2023/10/28 07:14:23;;;;;;;0.75;0.60;;;;;;;9.10;100.00;96841.72;6102587;19;20474;-75
2023/10/28 07:16:23;;;;;;;0.80;0.70;;;;;;;9.13;100.00;96844.44;6105386;19;19994;-75
2023/10/28 07:18:24;;;;;;;3.03;1.52;;;;;;;9.15;100.00;96853.09;6103900;19;20486;-75
2023/10/28 07:20:24;;;;;;;2.35;1.20;;;;;;;9.13;100.00;96855.47;6104997;19;20417;-75
2023/10/28 07:22:25;;;;;;;1.52;1.10;;;;;;;9.18;100.00;96857.78;6104523;19;20011;-74
2023/10/28 07:24:25;;;;;;;1.40;1.02;;;;;;;9.21;100.00;96861.72;6104570;19;20613;-75
2023/10/28 07:26:28;;;;;;;1.30;1.20;;;;;;;9.21;100.00;96867.25;6103835;19;20006;-75
2023/10/28 07:28:34;;;;;;;;;;;;;;;9.24;100.00;96869.97;6103071;19;20003;-75
2023/10/28 07:30:35;;;;;;;1.17;0.88;;;;;;;9.26;100.00;96870.34;6111863;19;20349;-74
2023/10/28 07:32:35;;;;;;;1.40;1.30;;;;;;;9.28;100.00;96875.47;6105459;19;19995;-74
2023/10/28 07:34:35;;;;;;;1.95;1.05;;;;;;;9.31;100.00;96874.63;6105429;19;20022;-75
2023/10/28 07:36:36;;;;;;;0.73;0.73;;;;;;;9.33;100.00;96877.75;6110958;19;20070;-75
2023/10/28 07:38:36;;;;;;;1.33;1.00;;;;;;;9.34;100.00;96878.53;6101669;19;20062;-75
2023/10/28 07:40:37;;;;;;;1.60;1.00;;;;;;;9.33;100.00;96880.53;6108435;19;20011;-75
2023/10/28 07:42:37;;;;;;;1.10;0.90;;;;;;;9.37;100.00;96886.03;6108486;19;20003;-74
2023/10/28 07:44:39;;;;;;;2.00;1.10;;;;;;;9.36;100.00;96879.72;6109071;19;20021;-75
2023/10/28 07:46:39;;;;;;;6.80;1.07;;;;;;;9.39;100.00;96876.13;6110884;19;20007;-75
2023/10/28 07:48:40;;;;;;;2.05;1.05;;;;;;;9.38;100.00;96882.84;6110831;19;20260;-74
2023/10/28 07:50:43;;;;;;;1.95;1.02;;;;;;;9.37;100.00;96881.28;6111677;19;20006;-74
2023/10/28 07:52:45;;;;;;;1.52;0.93;;;;;;;9.37;100.00;96903.38;6110187;19;20081;-74
2023/10/28 07:54:45;;;;;;;2.65;1.30;;;;;;;9.34;100.00;96890.38;6110319;19;20543;-75
2023/10/28 07:56:45;;;;;;;4.60;1.08;;;;;;;9.32;100.00;96891.97;6110668;19;20011;-75
2023/10/28 07:58:46;;;;;;;3.38;1.20;;;;;;;9.34;100.00;96893.13;6111435;19;20007;-75
2023/10/28 08:00:47;;;;;;;3.97;1.13;;;;;;;9.34;100.00;96906.94;6111439;19;20573;-75
2023/10/28 08:02:47;;;;;;;1.05;0.90;;;;;;;9.41;100.00;96900.56;6108247;19;20003;-75
2023/10/28 08:04:47;;;;;;;1.10;1.00;;;;;;;9.41;100.00;96908.84;6108051;19;20335;-75
2023/10/28 08:06:48;;;;;;;2.67;1.10;;;;;;;9.45;100.00;96910.41;6109850;19;20054;-75
2023/10/28 08:08:48;;;;;;;1.70;1.20;;;;;;;9.49;100.00;96910.34;6110521;19;20002;-74
2023/10/28 08:10:48;;;;;;;4.80;1.80;;;;;;;9.51;100.00;96913.47;6111085;19;20007;-75
2023/10/28 08:12:56;;;;;;;5.80;1.40;;;;;;;9.52;100.00;96910.34;6110231;19;20046;-74
2023/10/28 08:15:03;;;;;;;1.83;1.42;;;;;;;9.52;100.00;96907.56;6110443;19;20002;-74
2023/10/28 08:17:05;;;;;;;4.72;1.63;;;;;;;9.49;100.00;96907.59;6109259;19;20038;-75
2023/10/28 08:19:06;;;;;;;2.63;1.67;;;;;;;9.52;100.00;96909.56;6109904;19;20415;-74
2023/10/28 08:21:07;;;;;;;2.83;1.58;;;;;;;9.48;100.00;96912.34;6109360;19;20031;-75
2023/10/28 08:23:07;;;;;;;2.80;1.33;;;;;;;9.45;100.00;96915.13;6110371;19;20450;-75
2023/10/28 08:25:08;;;;;;;2.10;1.30;;;;;;;9.41;100.00;96917.13;6109120;19;20477;-74
2023/10/28 08:27:09;;;;;;;5.57;1.58;;;;;;;9.43;100.00;96917.50;6109748;19;20007;-75
2023/10/28 08:29:11;;;;;;;1.30;1.00;;;;;;;9.43;100.00;96918.31;6109547;19;20013;-75
2023/10/28 08:31:11;;;;;;;;;;;;;;;9.47;100.00;96919.06;6111060;19;20003;-75
2023/10/28 08:33:12;;;;;;;1.45;0.90;;;;;;;9.49;100.00;96926.91;6109880;19;19929;-74
2023/10/28 08:35:12;;;;;;;1.30;0.95;;;;;;;9.56;100.00;96921.34;6107249;19;20003;-75
2023/10/28 08:37:13;;;;;;;1.60;1.00;;;;;;;9.67;100.00;96921.22;6110804;19;20002;-75
2023/10/28 08:39:14;;;;;;;1.30;0.80;;;;;;;9.74;100.00;96921.16;6110293;19;20007;-75
2023/10/28 08:41:21;;;;;;;2.50;1.50;;;;;;;9.86;100.00;96920.66;6108486;19;20010;-75
2023/10/28 08:43:23;;;;;;;1.70;1.00;;;;;;;9.94;100.00;96930.44;6110170;19;20011;-74
2023/10/28 08:45:23;;;;;;;4.25;1.17;;;;;;;10.04;100.00;96934.25;6109302;19;20010;-74
2023/10/28 08:47:26;;;;;;;1.92;0.73;;;;;;;10.13;100.00;96931.78;6109177;19;20627;-75
2023/10/28 08:49:27;;;;;;;1.45;0.90;;;;;;;10.19;100.00;96926.59;6110599;19;20463;-75
2023/10/28 08:51:28;;;;;;;1.60;0.90;;;;;;;10.21;100.00;96932.50;6110172;19;20342;-75
2023/10/28 08:53:33;;;;;;;2.20;0.95;;;;;;;10.22;100.00;96926.56;6109575;19;20031;-75
2023/10/28 08:55:36;;;;;;;1.38;0.80;;;;;;;10.24;100.00;96926.94;6109967;19;20554;-74
2023/10/28 08:57:43;;;;;;;2.00;0.88;;;;;;;10.29;100.00;96934.00;6110737;19;20319;-74
2023/10/28 08:59:44;;;;;;;0.80;0.80;;;;;;;10.32;100.00;96941.47;6110798;19;20491;-74
2023/10/28 09:01:44;;;;;;;1.25;0.80;;;;;;;10.34;100.00;96937.09;6108541;19;20006;-74
2023/10/28 09:03:47;;;;;;;1.23;0.80;;;;;;;10.34;100.00;96936.28;6108600;19;20302;-74
2023/10/28 09:05:52;;;;;;;;;;;;;;;10.44;100.00;96945.69;6109947;19;20015;-75
2023/10/28 09:07:53;;;;;;;2.00;0.80;;;;;;;10.49;100.00;96950.72;6108906;19;19932;-75
2023/10/28 09:09:58;;;;;;;2.80;0.85;;;;;;;10.47;100.00;96953.91;6108518;19;20006;-74
2023/10/28 09:11:59;;;;;;;2.97;0.80;;;;;;;10.55;100.00;96954.63;6108788;19;20374;-74
2023/10/28 09:14:00;;;;;;;2.08;1.00;;;;;;;10.58;100.00;96959.31;6108096;19;20536;-74
2023/10/28 09:16:01;;;;;;;2.22;0.90;;;;;;;10.57;100.00;96964.06;6108844;19;20086;-74
2023/10/28 09:18:01;;;;;;;1.88;0.90;;;;;;;10.61;100.00;96955.72;6109451;19;20683;-74
2023/10/28 09:20:09;;;;;;;2.17;1.08;;;;;;;10.59;100.00;96966.41;6108333;19;20006;-74
2023/10/28 09:22:09;;;;;;;1.27;0.90;;;;;;;10.59;100.00;96964.44;6107843;19;20413;-74
2023/10/28 09:24:11;;;;;;;1.50;1.02;;;;;;;10.69;100.00;96962.72;6106818;19;20007;-74
2023/10/28 09:26:12;;;;;;;1.80;0.70;;;;;;;10.69;100.00;96951.66;6108540;19;20041;-75
2023/10/28 09:28:15;;;;;;;0.75;0.75;;;;;;;10.75;100.00;96966.59;6108572;19;20010;-74
2023/10/28 09:30:17;;;;;;;2.13;0.75;;;;;;;10.74;100.00;96959.50;6105936;19;20043;-74